sensor_id;sensor_type;location;lat;lon;timestamp;P1;durP1;ratioP1;P2;durP2;ratioP2
17784;SDS011;9016;53.582;10.062;2023-03-01T00:01:19;23.87;;;16.37;;
17784;SDS011;9016;53.582;10.062;2023-03-01T00:03:49;24.63;;;15.70;;
17784;SDS011;9016;53.582;10.062;2023-03-01T00:06:18;26.03;;;16.53;;
17784;SDS011;9016;53.582;10.062;2023-03-01T00:08:47;24.80;;;16.63;;
17784;SDS011;9016;53.582;10.062;2023-03-01T00:11:16;25.63;;;16.03;;
17784;SDS011;9016;53.582;10.062;2023-03-01T00:13:48;25.87;;;15.50;;
17784;SDS011;9016;53.582;10.062;2023-03-01T00:16:19;25.07;;;15.97;;
17784;SDS011;9016;53.582;10.062;2023-03-01T00:18:48;24.30;;;15.97;;
17784;SDS011;9016;53.582;10.062;2023-03-01T00:21:16;23.80;;;16.57;;
17784;SDS011;9016;53.582;10.062;2023-03-01T00:23:49;29.80;;;18.13;;
17784;SDS011;9016;53.582;10.062;2023-03-01T00:26:18;28.13;;;15.73;;
17784;SDS011;9016;53.582;10.062;2023-03-01T00:28:48;25.83;;;16.50;;
17784;SDS011;9016;53.582;10.062;2023-03-01T00:31:17;24.73;;;15.33;;
17784;SDS011;9016;53.582;10.062;2023-03-01T00:33:47;25.87;;;15.90;;
17784;SDS011;9016;53.582;10.062;2023-03-01T00:36:15;22.73;;;15.00;;
17784;SDS011;9016;53.582;10.062;2023-03-01T00:38:43;21.30;;;14.63;;
17784;SDS011;9016;53.582;10.062;2023-03-01T00:41:13;24.27;;;14.83;;
17784;SDS011;9016;53.582;10.062;2023-03-01T00:43:43;22.77;;;14.20;;
17784;SDS011;9016;53.582;10.062;2023-03-01T00:46:13;24.97;;;15.30;;
17784;SDS011;9016;53.582;10.062;2023-03-01T00:48:43;22.60;;;14.93;;
17784;SDS011;9016;53.582;10.062;2023-03-01T00:51:13;25.70;;;15.60;;
17784;SDS011;9016;53.582;10.062;2023-03-01T00:53:43;22.63;;;15.47;;
17784;SDS011;9016;53.582;10.062;2023-03-01T00:56:12;22.83;;;14.73;;
17784;SDS011;9016;53.582;10.062;2023-03-01T00:58:41;26.83;;;15.93;;
17784;SDS011;9016;53.582;10.062;2023-03-01T01:01:10;23.00;;;15.77;;
17784;SDS011;9016;53.582;10.062;2023-03-01T01:03:47;24.57;;;15.43;;
17784;SDS011;9016;53.582;10.062;2023-03-01T01:06:17;26.63;;;15.60;;
17784;SDS011;9016;53.582;10.062;2023-03-01T01:08:46;22.50;;;15.40;;
17784;SDS011;9016;53.582;10.062;2023-03-01T01:11:14;22.10;;;14.80;;
17784;SDS011;9016;53.582;10.062;2023-03-01T01:13:43;25.37;;;14.53;;
17784;SDS011;9016;53.582;10.062;2023-03-01T01:16:12;23.50;;;14.17;;
17784;SDS011;9016;53.582;10.062;2023-03-01T01:18:41;21.43;;;14.00;;
17784;SDS011;9016;53.582;10.062;2023-03-01T01:21:11;21.03;;;13.80;;
17784;SDS011;9016;53.582;10.062;2023-03-01T01:23:40;23.80;;;14.00;;
17784;SDS011;9016;53.582;10.062;2023-03-01T01:26:12;24.10;;;14.83;;
17784;SDS011;9016;53.582;10.062;2023-03-01T01:28:41;22.10;;;13.87;;
17784;SDS011;9016;53.582;10.062;2023-03-01T01:31:09;21.90;;;15.10;;
17784;SDS011;9016;53.582;10.062;2023-03-01T01:33:37;27.00;;;15.43;;
17784;SDS011;9016;53.582;10.062;2023-03-01T01:36:06;22.73;;;14.90;;
17784;SDS011;9016;53.582;10.062;2023-03-01T01:38:36;25.30;;;15.17;;
17784;SDS011;9016;53.582;10.062;2023-03-01T01:41:06;23.67;;;15.50;;
17784;SDS011;9016;53.582;10.062;2023-03-01T01:43:35;21.17;;;14.97;;
17784;SDS011;9016;53.582;10.062;2023-03-01T01:46:05;26.10;;;15.87;;
17784;SDS011;9016;53.582;10.062;2023-03-01T01:48:41;24.40;;;15.07;;
17784;SDS011;9016;53.582;10.062;2023-03-01T01:51:13;19.70;;;13.97;;
17784;SDS011;9016;53.582;10.062;2023-03-01T01:53:47;22.53;;;13.90;;
17784;SDS011;9016;53.582;10.062;2023-03-01T01:56:18;22.47;;;14.40;;
17784;SDS011;9016;53.582;10.062;2023-03-01T01:58:47;23.80;;;14.27;;
17784;SDS011;9016;53.582;10.062;2023-03-01T02:01:18;25.37;;;14.10;;
17784;SDS011;9016;53.582;10.062;2023-03-01T02:04:04;21.50;;;13.03;;
17784;SDS011;9016;53.582;10.062;2023-03-01T02:06:33;19.70;;;12.87;;
17784;SDS011;9016;53.582;10.062;2023-03-01T02:09:13;19.93;;;12.47;;
17784;SDS011;9016;53.582;10.062;2023-03-01T02:11:43;20.93;;;12.60;;
17784;SDS011;9016;53.582;10.062;2023-03-01T02:14:35;19.47;;;12.53;;
17784;SDS011;9016;53.582;10.062;2023-03-01T02:17:03;22.63;;;12.57;;
17784;SDS011;9016;53.582;10.062;2023-03-01T02:19:35;18.37;;;12.60;;
17784;SDS011;9016;53.582;10.062;2023-03-01T02:22:19;19.30;;;12.57;;
17784;SDS011;9016;53.582;10.062;2023-03-01T02:24:59;19.87;;;12.80;;
17784;SDS011;9016;53.582;10.062;2023-03-01T02:27:36;21.37;;;13.43;;
17784;SDS011;9016;53.582;10.062;2023-03-01T02:30:14;20.20;;;13.00;;
17784;SDS011;9016;53.582;10.062;2023-03-01T02:32:47;20.83;;;12.60;;
17784;SDS011;9016;53.582;10.062;2023-03-01T02:35:33;19.23;;;12.20;;
17784;SDS011;9016;53.582;10.062;2023-03-01T02:38:06;22.93;;;13.10;;
17784;SDS011;9016;53.582;10.062;2023-03-01T02:40:37;22.17;;;13.53;;
17784;SDS011;9016;53.582;10.062;2023-03-01T02:43:07;20.83;;;14.27;;
17784;SDS011;9016;53.582;10.062;2023-03-01T02:45:47;20.40;;;14.00;;
17784;SDS011;9016;53.582;10.062;2023-03-01T02:48:19;23.97;;;14.33;;
17784;SDS011;9016;53.582;10.062;2023-03-01T02:50:52;22.13;;;14.73;;
17784;SDS011;9016;53.582;10.062;2023-03-01T02:53:33;22.20;;;14.37;;
17784;SDS011;9016;53.582;10.062;2023-03-01T02:56:06;20.53;;;14.77;;
17784;SDS011;9016;53.582;10.062;2023-03-01T02:58:39;21.00;;;15.20;;
17784;SDS011;9016;53.582;10.062;2023-03-01T03:01:19;20.93;;;14.43;;
17784;SDS011;9016;53.582;10.062;2023-03-01T03:04:00;22.10;;;14.00;;
17784;SDS011;9016;53.582;10.062;2023-03-01T03:06:30;21.50;;;14.87;;
17784;SDS011;9016;53.582;10.062;2023-03-01T03:09:02;21.87;;;14.20;;
17784;SDS011;9016;53.582;10.062;2023-03-01T03:11:30;20.03;;;13.90;;
17784;SDS011;9016;53.582;10.062;2023-03-01T03:13:59;22.67;;;15.07;;
17784;SDS011;9016;53.582;10.062;2023-03-01T03:16:29;24.33;;;14.73;;
17784;SDS011;9016;53.582;10.062;2023-03-01T03:19:16;20.43;;;13.90;;
17784;SDS011;9016;53.582;10.062;2023-03-01T03:21:48;22.50;;;13.87;;
17784;SDS011;9016;53.582;10.062;2023-03-01T03:24:16;24.53;;;15.90;;
17784;SDS011;9016;53.582;10.062;2023-03-01T03:26:44;25.30;;;15.33;;
17784;SDS011;9016;53.582;10.062;2023-03-01T03:29:13;22.33;;;14.90;;
17784;SDS011;9016;53.582;10.062;2023-03-01T03:31:44;17.17;;;11.63;;
17784;SDS011;9016;53.582;10.062;2023-03-01T03:34:13;16.57;;;11.20;;
17784;SDS011;9016;53.582;10.062;2023-03-01T03:36:44;13.43;;;10.00;;
17784;SDS011;9016;53.582;10.062;2023-03-01T03:39:12;13.67;;;10.13;;
17784;SDS011;9016;53.582;10.062;2023-03-01T03:41:40;15.90;;;10.17;;
17784;SDS011;9016;53.582;10.062;2023-03-01T03:44:08;15.67;;;10.10;;
17784;SDS011;9016;53.582;10.062;2023-03-01T03:46:39;13.73;;;8.87;;
17784;SDS011;9016;53.582;10.062;2023-03-01T03:49:09;13.83;;;9.50;;
17784;SDS011;9016;53.582;10.062;2023-03-01T03:51:37;16.17;;;9.13;;
17784;SDS011;9016;53.582;10.062;2023-03-01T03:54:05;13.23;;;8.37;;
17784;SDS011;9016;53.582;10.062;2023-03-01T03:56:33;17.00;;;8.70;;
17784;SDS011;9016;53.582;10.062;2023-03-01T03:59:01;13.87;;;7.97;;
17784;SDS011;9016;53.582;10.062;2023-03-01T04:01:29;12.67;;;8.70;;
17784;SDS011;9016;53.582;10.062;2023-03-01T04:03:57;12.37;;;8.50;;
17784;SDS011;9016;53.582;10.062;2023-03-01T04:06:35;10.10;;;8.03;;
17784;SDS011;9016;53.582;10.062;2023-03-01T04:09:06;12.03;;;8.70;;
17784;SDS011;9016;53.582;10.062;2023-03-01T04:11:34;12.47;;;7.73;;
17784;SDS011;9016;53.582;10.062;2023-03-01T04:14:03;10.90;;;7.07;;
17784;SDS011;9016;53.582;10.062;2023-03-01T04:16:34;9.30;;;6.67;;
17784;SDS011;9016;53.582;10.062;2023-03-01T04:19:01;12.83;;;7.43;;
17784;SDS011;9016;53.582;10.062;2023-03-01T04:21:29;11.53;;;7.73;;
17784;SDS011;9016;53.582;10.062;2023-03-01T04:24:02;10.17;;;7.17;;
17784;SDS011;9016;53.582;10.062;2023-03-01T04:26:31;10.70;;;6.87;;
17784;SDS011;9016;53.582;10.062;2023-03-01T04:28:59;9.07;;;6.70;;
17784;SDS011;9016;53.582;10.062;2023-03-01T04:31:27;11.17;;;7.23;;
17784;SDS011;9016;53.582;10.062;2023-03-01T04:34:00;9.20;;;7.03;;
17784;SDS011;9016;53.582;10.062;2023-03-01T04:36:32;11.67;;;7.10;;
17784;SDS011;9016;53.582;10.062;2023-03-01T04:39:04;11.53;;;6.80;;
17784;SDS011;9016;53.582;10.062;2023-03-01T04:41:38;12.73;;;7.00;;
17784;SDS011;9016;53.582;10.062;2023-03-01T04:44:07;11.97;;;6.97;;
17784;SDS011;9016;53.582;10.062;2023-03-01T04:46:38;9.67;;;6.33;;
17784;SDS011;9016;53.582;10.062;2023-03-01T04:49:07;8.53;;;5.97;;
17784;SDS011;9016;53.582;10.062;2023-03-01T04:51:39;8.50;;;6.50;;
17784;SDS011;9016;53.582;10.062;2023-03-01T04:54:09;8.57;;;6.20;;
17784;SDS011;9016;53.582;10.062;2023-03-01T04:56:37;8.90;;;6.30;;
17784;SDS011;9016;53.582;10.062;2023-03-01T04:59:05;8.17;;;5.77;;
17784;SDS011;9016;53.582;10.062;2023-03-01T05:01:35;7.83;;;6.17;;
17784;SDS011;9016;53.582;10.062;2023-03-01T05:04:04;8.50;;;5.67;;
17784;SDS011;9016;53.582;10.062;2023-03-01T05:06:33;10.03;;;6.30;;
17784;SDS011;9016;53.582;10.062;2023-03-01T05:09:04;9.00;;;6.17;;
17784;SDS011;9016;53.582;10.062;2023-03-01T05:11:43;10.87;;;6.53;;
17784;SDS011;9016;53.582;10.062;2023-03-01T05:14:14;9.43;;;6.57;;
17784;SDS011;9016;53.582;10.062;2023-03-01T05:16:42;8.33;;;6.13;;
17784;SDS011;9016;53.582;10.062;2023-03-01T05:19:10;8.53;;;6.50;;
17784;SDS011;9016;53.582;10.062;2023-03-01T05:21:41;9.13;;;6.87;;
17784;SDS011;9016;53.582;10.062;2023-03-01T05:24:26;11.30;;;7.80;;
17784;SDS011;9016;53.582;10.062;2023-03-01T05:26:55;10.63;;;7.13;;
17784;SDS011;9016;53.582;10.062;2023-03-01T05:29:25;9.57;;;7.30;;
17784;SDS011;9016;53.582;10.062;2023-03-01T05:31:55;8.87;;;7.03;;
17784;SDS011;9016;53.582;10.062;2023-03-01T05:34:24;9.20;;;6.70;;
17784;SDS011;9016;53.582;10.062;2023-03-01T05:36:53;9.73;;;6.33;;
17784;SDS011;9016;53.582;10.062;2023-03-01T05:39:22;10.07;;;6.77;;
17784;SDS011;9016;53.582;10.062;2023-03-01T05:41:53;10.23;;;6.67;;
17784;SDS011;9016;53.582;10.062;2023-03-01T05:44:22;9.53;;;7.00;;
17784;SDS011;9016;53.582;10.062;2023-03-01T05:46:51;8.77;;;6.70;;
17784;SDS011;9016;53.582;10.062;2023-03-01T05:49:20;9.30;;;6.27;;
17784;SDS011;9016;53.582;10.062;2023-03-01T05:51:50;10.17;;;6.73;;
17784;SDS011;9016;53.582;10.062;2023-03-01T05:54:20;9.77;;;7.37;;
17784;SDS011;9016;53.582;10.062;2023-03-01T05:56:49;10.73;;;6.97;;
17784;SDS011;9016;53.582;10.062;2023-03-01T05:59:18;10.83;;;7.90;;
17784;SDS011;9016;53.582;10.062;2023-03-01T06:01:46;9.07;;;7.27;;
17784;SDS011;9016;53.582;10.062;2023-03-01T06:04:14;10.80;;;7.13;;
17784;SDS011;9016;53.582;10.062;2023-03-01T06:06:42;12.50;;;7.70;;
17784;SDS011;9016;53.582;10.062;2023-03-01T06:09:10;11.63;;;7.90;;
17784;SDS011;9016;53.582;10.062;2023-03-01T06:11:38;9.53;;;7.80;;
17784;SDS011;9016;53.582;10.062;2023-03-01T06:14:07;12.37;;;7.80;;
17784;SDS011;9016;53.582;10.062;2023-03-01T06:16:38;10.57;;;7.37;;
17784;SDS011;9016;53.582;10.062;2023-03-01T06:19:06;11.40;;;7.87;;
17784;SDS011;9016;53.582;10.062;2023-03-01T06:21:34;8.80;;;7.60;;
17784;SDS011;9016;53.582;10.062;2023-03-01T06:24:02;10.13;;;7.83;;
17784;SDS011;9016;53.582;10.062;2023-03-01T06:26:33;11.70;;;8.00;;
17784;SDS011;9016;53.582;10.062;2023-03-01T06:29:01;11.20;;;8.23;;
17784;SDS011;9016;53.582;10.062;2023-03-01T06:31:29;10.80;;;8.53;;
17784;SDS011;9016;53.582;10.062;2023-03-01T06:33:59;12.10;;;8.33;;
17784;SDS011;9016;53.582;10.062;2023-03-01T06:36:27;10.43;;;8.20;;
17784;SDS011;9016;53.582;10.062;2023-03-01T06:38:55;11.53;;;8.03;;
17784;SDS011;9016;53.582;10.062;2023-03-01T06:41:23;12.33;;;8.80;;
17784;SDS011;9016;53.582;10.062;2023-03-01T06:43:52;11.20;;;8.50;;
17784;SDS011;9016;53.582;10.062;2023-03-01T06:46:20;10.33;;;8.13;;
17784;SDS011;9016;53.582;10.062;2023-03-01T06:48:48;10.87;;;7.93;;
17784;SDS011;9016;53.582;10.062;2023-03-01T06:51:20;9.80;;;7.73;;
17784;SDS011;9016;53.582;10.062;2023-03-01T06:53:48;9.87;;;7.33;;
17784;SDS011;9016;53.582;10.062;2023-03-01T06:56:17;11.77;;;7.47;;
17784;SDS011;9016;53.582;10.062;2023-03-01T06:58:44;8.03;;;6.70;;
17784;SDS011;9016;53.582;10.062;2023-03-01T07:01:13;9.20;;;6.73;;
17784;SDS011;9016;53.582;10.062;2023-03-01T07:03:41;8.83;;;6.60;;
17784;SDS011;9016;53.582;10.062;2023-03-01T07:06:10;8.07;;;5.97;;
17784;SDS011;9016;53.582;10.062;2023-03-01T07:08:39;7.40;;;5.67;;
17784;SDS011;9016;53.582;10.062;2023-03-01T07:11:07;7.50;;;5.73;;
17784;SDS011;9016;53.582;10.062;2023-03-01T07:13:35;8.13;;;6.10;;
17784;SDS011;9016;53.582;10.062;2023-03-01T07:16:03;11.10;;;6.70;;
17784;SDS011;9016;53.582;10.062;2023-03-01T07:18:32;8.63;;;5.93;;
17784;SDS011;9016;53.582;10.062;2023-03-01T07:21:03;8.47;;;6.07;;
17784;SDS011;9016;53.582;10.062;2023-03-01T07:23:31;10.10;;;6.57;;
17784;SDS011;9016;53.582;10.062;2023-03-01T07:26:01;11.63;;;9.40;;
17784;SDS011;9016;53.582;10.062;2023-03-01T07:28:32;11.40;;;7.87;;
17784;SDS011;9016;53.582;10.062;2023-03-01T07:31:02;8.97;;;7.00;;
17784;SDS011;9016;53.582;10.062;2023-03-01T07:33:31;9.20;;;7.13;;
17784;SDS011;9016;53.582;10.062;2023-03-01T07:35:59;10.10;;;7.60;;
17784;SDS011;9016;53.582;10.062;2023-03-01T07:38:28;8.80;;;6.63;;
17784;SDS011;9016;53.582;10.062;2023-03-01T07:40:57;8.50;;;6.90;;
17784;SDS011;9016;53.582;10.062;2023-03-01T07:43:27;11.27;;;7.77;;
17784;SDS011;9016;53.582;10.062;2023-03-01T07:45:57;9.77;;;8.20;;
17784;SDS011;9016;53.582;10.062;2023-03-01T07:48:26;14.97;;;11.57;;
17784;SDS011;9016;53.582;10.062;2023-03-01T07:50:54;10.90;;;9.33;;
17784;SDS011;9016;53.582;10.062;2023-03-01T07:53:22;13.13;;;10.07;;
17784;SDS011;9016;53.582;10.062;2023-03-01T07:55:50;11.37;;;9.30;;
17784;SDS011;9016;53.582;10.062;2023-03-01T07:58:29;12.50;;;10.30;;
17784;SDS011;9016;53.582;10.062;2023-03-01T08:01:00;13.07;;;10.20;;
17784;SDS011;9016;53.582;10.062;2023-03-01T08:03:29;14.60;;;10.53;;
17784;SDS011;9016;53.582;10.062;2023-03-01T08:05:59;16.20;;;11.47;;
17784;SDS011;9016;53.582;10.062;2023-03-01T08:08:27;13.80;;;10.50;;
17784;SDS011;9016;53.582;10.062;2023-03-01T08:10:56;11.77;;;9.77;;
17784;SDS011;9016;53.582;10.062;2023-03-01T08:13:24;13.47;;;10.90;;
17784;SDS011;9016;53.582;10.062;2023-03-01T08:15:54;13.43;;;10.33;;
17784;SDS011;9016;53.582;10.062;2023-03-01T08:18:27;11.10;;;9.73;;
17784;SDS011;9016;53.582;10.062;2023-03-01T08:20:55;12.70;;;10.67;;
17784;SDS011;9016;53.582;10.062;2023-03-01T08:23:28;14.67;;;10.33;;
17784;SDS011;9016;53.582;10.062;2023-03-01T08:26:02;13.57;;;10.97;;
17784;SDS011;9016;53.582;10.062;2023-03-01T08:28:32;12.50;;;10.13;;
17784;SDS011;9016;53.582;10.062;2023-03-01T08:31:02;12.73;;;10.27;;
17784;SDS011;9016;53.582;10.062;2023-03-01T08:33:30;11.37;;;9.93;;
17784;SDS011;9016;53.582;10.062;2023-03-01T08:36:02;13.30;;;10.03;;
17784;SDS011;9016;53.582;10.062;2023-03-01T08:38:33;12.63;;;10.10;;
17784;SDS011;9016;53.582;10.062;2023-03-01T08:41:02;13.70;;;10.13;;
17784;SDS011;9016;53.582;10.062;2023-03-01T08:43:31;13.40;;;9.80;;
17784;SDS011;9016;53.582;10.062;2023-03-01T08:45:59;15.60;;;10.80;;
17784;SDS011;9016;53.582;10.062;2023-03-01T08:48:28;14.60;;;10.33;;
17784;SDS011;9016;53.582;10.062;2023-03-01T08:50:57;13.17;;;9.77;;
17784;SDS011;9016;53.582;10.062;2023-03-01T08:53:34;13.33;;;10.73;;
17784;SDS011;9016;53.582;10.062;2023-03-01T08:56:02;12.90;;;10.00;;
17784;SDS011;9016;53.582;10.062;2023-03-01T08:58:32;12.43;;;10.43;;
17784;SDS011;9016;53.582;10.062;2023-03-01T09:01:00;15.00;;;10.67;;
17784;SDS011;9016;53.582;10.062;2023-03-01T09:03:29;12.87;;;10.83;;
17784;SDS011;9016;53.582;10.062;2023-03-01T09:05:59;13.87;;;11.40;;
17784;SDS011;9016;53.582;10.062;2023-03-01T09:08:30;14.03;;;11.60;;
17784;SDS011;9016;53.582;10.062;2023-03-01T09:10:58;13.83;;;11.00;;
17784;SDS011;9016;53.582;10.062;2023-03-01T09:13:28;18.27;;;11.63;;
17784;SDS011;9016;53.582;10.062;2023-03-01T09:15:58;13.73;;;11.83;;
17784;SDS011;9016;53.582;10.062;2023-03-01T09:18:28;14.27;;;11.80;;
17784;SDS011;9016;53.582;10.062;2023-03-01T09:21:01;13.87;;;11.83;;
17784;SDS011;9016;53.582;10.062;2023-03-01T09:23:34;12.70;;;11.40;;
17784;SDS011;9016;53.582;10.062;2023-03-01T09:26:05;19.03;;;13.10;;
17784;SDS011;9016;53.582;10.062;2023-03-01T09:28:34;14.60;;;12.60;;
17784;SDS011;9016;53.582;10.062;2023-03-01T09:31:03;14.27;;;12.13;;
17784;SDS011;9016;53.582;10.062;2023-03-01T09:33:33;16.00;;;12.73;;
17784;SDS011;9016;53.582;10.062;2023-03-01T09:36:02;13.40;;;12.00;;
17784;SDS011;9016;53.582;10.062;2023-03-01T09:38:31;15.37;;;11.60;;
17784;SDS011;9016;53.582;10.062;2023-03-01T09:40:59;15.27;;;12.10;;
17784;SDS011;9016;53.582;10.062;2023-03-01T09:43:29;14.10;;;12.07;;
17784;SDS011;9016;53.582;10.062;2023-03-01T09:46:08;15.30;;;11.93;;
17784;SDS011;9016;53.582;10.062;2023-03-01T09:48:42;13.77;;;11.37;;
17784;SDS011;9016;53.582;10.062;2023-03-01T09:51:14;14.10;;;12.30;;
17784;SDS011;9016;53.582;10.062;2023-03-01T09:53:45;14.57;;;12.10;;
17784;SDS011;9016;53.582;10.062;2023-03-01T09:56:16;16.27;;;12.57;;
17784;SDS011;9016;53.582;10.062;2023-03-01T09:58:50;14.70;;;11.90;;
17784;SDS011;9016;53.582;10.062;2023-03-01T10:01:26;14.03;;;11.97;;
17784;SDS011;9016;53.582;10.062;2023-03-01T10:04:04;15.63;;;11.93;;
17784;SDS011;9016;53.582;10.062;2023-03-01T10:06:43;16.33;;;12.80;;
17784;SDS011;9016;53.582;10.062;2023-03-01T10:09:18;16.60;;;13.97;;
17784;SDS011;9016;53.582;10.062;2023-03-01T10:11:49;15.13;;;12.13;;
17784;SDS011;9016;53.582;10.062;2023-03-01T10:14:23;14.53;;;11.67;;
17784;SDS011;9016;53.582;10.062;2023-03-01T10:17:01;14.97;;;11.63;;
17784;SDS011;9016;53.582;10.062;2023-03-01T10:19:34;13.17;;;11.23;;
17784;SDS011;9016;53.582;10.062;2023-03-01T10:22:10;13.80;;;11.00;;
17784;SDS011;9016;53.582;10.062;2023-03-01T10:24:45;15.47;;;10.77;;
17784;SDS011;9016;53.582;10.062;2023-03-01T10:27:14;12.90;;;10.60;;
17784;SDS011;9016;53.582;10.062;2023-03-01T10:29:54;16.57;;;11.00;;
17784;SDS011;9016;53.582;10.062;2023-03-01T10:32:33;13.77;;;10.20;;
17784;SDS011;9016;53.582;10.062;2023-03-01T10:35:14;12.37;;;10.93;;
17784;SDS011;9016;53.582;10.062;2023-03-01T10:40:31;16.97;;;12.23;;
17784;SDS011;9016;53.582;10.062;2023-03-01T10:43:02;13.57;;;10.90;;
17784;SDS011;9016;53.582;10.062;2023-03-01T10:45:33;14.37;;;10.90;;
17784;SDS011;9016;53.582;10.062;2023-03-01T10:48:11;13.07;;;10.10;;
17784;SDS011;9016;53.582;10.062;2023-03-01T10:50:43;13.40;;;11.07;;
17784;SDS011;9016;53.582;10.062;2023-03-01T10:53:20;10.93;;;9.10;;
17784;SDS011;9016;53.582;10.062;2023-03-01T10:55:59;11.93;;;10.27;;
17784;SDS011;9016;53.582;10.062;2023-03-01T10:58:33;13.87;;;11.23;;
17784;SDS011;9016;53.582;10.062;2023-03-01T11:01:04;13.60;;;10.93;;
17784;SDS011;9016;53.582;10.062;2023-03-01T11:03:34;14.00;;;10.80;;
17784;SDS011;9016;53.582;10.062;2023-03-01T11:06:19;11.37;;;9.73;;
17784;SDS011;9016;53.582;10.062;2023-03-01T11:08:49;10.90;;;9.80;;
17784;SDS011;9016;53.582;10.062;2023-03-01T11:11:22;11.50;;;10.03;;
17784;SDS011;9016;53.582;10.062;2023-03-01T11:14:01;14.80;;;10.40;;
17784;SDS011;9016;53.582;10.062;2023-03-01T11:17:00;13.47;;;10.70;;
17784;SDS011;9016;53.582;10.062;2023-03-01T11:19:29;12.03;;;9.73;;
17784;SDS011;9016;53.582;10.062;2023-03-01T11:22:03;12.57;;;10.47;;
17784;SDS011;9016;53.582;10.062;2023-03-01T11:24:37;13.03;;;10.37;;
17784;SDS011;9016;53.582;10.062;2023-03-01T11:27:14;13.03;;;10.10;;
17784;SDS011;9016;53.582;10.062;2023-03-01T11:29:47;15.17;;;11.80;;
17784;SDS011;9016;53.582;10.062;2023-03-01T11:32:22;12.03;;;10.57;;
17784;SDS011;9016;53.582;10.062;2023-03-01T11:34:55;13.07;;;10.30;;
17784;SDS011;9016;53.582;10.062;2023-03-01T11:37:32;11.20;;;10.00;;
17784;SDS011;9016;53.582;10.062;2023-03-01T11:40:10;11.97;;;10.13;;
17784;SDS011;9016;53.582;10.062;2023-03-01T11:42:50;12.27;;;10.10;;
17784;SDS011;9016;53.582;10.062;2023-03-01T11:45:42;12.50;;;10.23;;
17784;SDS011;9016;53.582;10.062;2023-03-01T11:48:28;13.30;;;10.47;;
17784;SDS011;9016;53.582;10.062;2023-03-01T11:51:17;12.60;;;10.27;;
17784;SDS011;9016;53.582;10.062;2023-03-01T11:53:59;14.47;;;10.77;;
17784;SDS011;9016;53.582;10.062;2023-03-01T11:56:50;14.73;;;10.07;;
17784;SDS011;9016;53.582;10.062;2023-03-01T11:59:35;11.70;;;10.50;;
17784;SDS011;9016;53.582;10.062;2023-03-01T12:02:37;12.57;;;10.60;;
17784;SDS011;9016;53.582;10.062;2023-03-01T12:08:52;11.43;;;9.83;;
17784;SDS011;9016;53.582;10.062;2023-03-01T12:11:34;11.03;;;8.90;;
17784;SDS011;9016;53.582;10.062;2023-03-01T12:14:17;12.40;;;8.70;;
17784;SDS011;9016;53.582;10.062;2023-03-01T12:17:07;11.60;;;8.70;;
17784;SDS011;9016;53.582;10.062;2023-03-01T12:22:44;11.43;;;8.90;;
17784;SDS011;9016;53.582;10.062;2023-03-01T12:25:46;11.30;;;9.77;;
17784;SDS011;9016;53.582;10.062;2023-03-01T12:28:27;9.60;;;8.70;;
17784;SDS011;9016;53.582;10.062;2023-03-01T12:34:23;8.60;;;6.70;;
17784;SDS011;9016;53.582;10.062;2023-03-01T12:37:08;9.13;;;6.97;;
17784;SDS011;9016;53.582;10.062;2023-03-01T12:39:52;9.97;;;6.87;;
17784;SDS011;9016;53.582;10.062;2023-03-01T12:42:41;8.73;;;7.33;;
17784;SDS011;9016;53.582;10.062;2023-03-01T12:45:25;7.70;;;6.90;;
17784;SDS011;9016;53.582;10.062;2023-03-01T12:48:13;9.37;;;7.07;;
17784;SDS011;9016;53.582;10.062;2023-03-01T12:50:51;9.20;;;6.93;;
17784;SDS011;9016;53.582;10.062;2023-03-01T12:53:22;7.73;;;6.50;;
17784;SDS011;9016;53.582;10.062;2023-03-01T12:55:53;7.43;;;6.27;;
17784;SDS011;9016;53.582;10.062;2023-03-01T12:58:26;7.97;;;6.83;;
17784;SDS011;9016;53.582;10.062;2023-03-01T13:01:15;7.67;;;6.20;;
17784;SDS011;9016;53.582;10.062;2023-03-01T13:03:57;8.53;;;7.47;;
17784;SDS011;9016;53.582;10.062;2023-03-01T13:06:47;8.43;;;6.83;;
17784;SDS011;9016;53.582;10.062;2023-03-01T13:09:28;8.97;;;7.40;;
17784;SDS011;9016;53.582;10.062;2023-03-01T13:12:02;7.60;;;6.80;;
17784;SDS011;9016;53.582;10.062;2023-03-01T13:14:46;8.97;;;7.40;;
17784;SDS011;9016;53.582;10.062;2023-03-01T13:17:30;9.00;;;7.67;;
17784;SDS011;9016;53.582;10.062;2023-03-01T13:19:59;9.13;;;7.30;;
17784;SDS011;9016;53.582;10.062;2023-03-01T13:22:31;8.40;;;7.50;;
17784;SDS011;9016;53.582;10.062;2023-03-01T13:25:13;9.07;;;7.60;;
17784;SDS011;9016;53.582;10.062;2023-03-01T13:27:47;8.90;;;7.67;;
17784;SDS011;9016;53.582;10.062;2023-03-01T13:39:26;8.67;;;7.00;;
17784;SDS011;9016;53.582;10.062;2023-03-01T13:42:01;8.03;;;6.80;;
17784;SDS011;9016;53.582;10.062;2023-03-01T13:44:30;7.87;;;7.07;;
17784;SDS011;9016;53.582;10.062;2023-03-01T13:47:14;9.53;;;6.53;;
17784;SDS011;9016;53.582;10.062;2023-03-01T13:49:46;9.87;;;6.53;;
17784;SDS011;9016;53.582;10.062;2023-03-01T13:55:15;7.57;;;6.80;;
17784;SDS011;9016;53.582;10.062;2023-03-01T13:57:55;8.03;;;7.13;;
17784;SDS011;9016;53.582;10.062;2023-03-01T14:00:32;9.03;;;6.43;;
17784;SDS011;9016;53.582;10.062;2023-03-01T14:03:05;9.53;;;6.97;;
17784;SDS011;9016;53.582;10.062;2023-03-01T14:05:39;7.03;;;6.23;;
17784;SDS011;9016;53.582;10.062;2023-03-01T14:08:18;7.60;;;6.77;;
17784;SDS011;9016;53.582;10.062;2023-03-01T14:10:53;8.53;;;6.87;;
17784;SDS011;9016;53.582;10.062;2023-03-01T14:13:38;7.83;;;6.80;;
17784;SDS011;9016;53.582;10.062;2023-03-01T14:16:20;7.50;;;6.70;;
17784;SDS011;9016;53.582;10.062;2023-03-01T14:19:04;7.30;;;6.40;;
17784;SDS011;9016;53.582;10.062;2023-03-01T14:22:02;6.60;;;6.00;;
17784;SDS011;9016;53.582;10.062;2023-03-01T14:24:44;7.40;;;6.07;;
17784;SDS011;9016;53.582;10.062;2023-03-01T14:27:16;6.27;;;4.90;;
17784;SDS011;9016;53.582;10.062;2023-03-01T14:29:53;6.10;;;5.50;;
17784;SDS011;9016;53.582;10.062;2023-03-01T14:32:24;7.57;;;5.53;;
17784;SDS011;9016;53.582;10.062;2023-03-01T14:34:55;5.83;;;5.23;;
17784;SDS011;9016;53.582;10.062;2023-03-01T14:37:24;6.63;;;5.20;;
17784;SDS011;9016;53.582;10.062;2023-03-01T14:39:54;5.87;;;4.47;;
17784;SDS011;9016;53.582;10.062;2023-03-01T14:42:24;6.50;;;4.63;;
17784;SDS011;9016;53.582;10.062;2023-03-01T14:44:55;5.63;;;4.97;;
17784;SDS011;9016;53.582;10.062;2023-03-01T14:47:25;7.07;;;5.10;;
17784;SDS011;9016;53.582;10.062;2023-03-01T14:49:59;6.40;;;5.57;;
17784;SDS011;9016;53.582;10.062;2023-03-01T14:52:31;6.80;;;5.07;;
17784;SDS011;9016;53.582;10.062;2023-03-01T14:55:04;5.50;;;4.93;;
17784;SDS011;9016;53.582;10.062;2023-03-01T14:57:42;7.00;;;5.63;;
17784;SDS011;9016;53.582;10.062;2023-03-01T15:00:14;6.77;;;4.90;;
17784;SDS011;9016;53.582;10.062;2023-03-01T15:02:46;5.77;;;4.73;;
17784;SDS011;9016;53.582;10.062;2023-03-01T15:05:18;7.23;;;5.37;;
17784;SDS011;9016;53.582;10.062;2023-03-01T15:07:53;6.57;;;5.47;;
17784;SDS011;9016;53.582;10.062;2023-03-01T15:10:23;6.43;;;5.63;;
17784;SDS011;9016;53.582;10.062;2023-03-01T15:12:52;14.93;;;11.17;;
17784;SDS011;9016;53.582;10.062;2023-03-01T15:15:22;7.07;;;6.10;;
17784;SDS011;9016;53.582;10.062;2023-03-01T15:17:58;5.97;;;5.37;;
17784;SDS011;9016;53.582;10.062;2023-03-01T15:20:30;6.30;;;5.30;;
17784;SDS011;9016;53.582;10.062;2023-03-01T15:23:02;5.23;;;4.70;;
17784;SDS011;9016;53.582;10.062;2023-03-01T15:25:31;5.90;;;4.87;;
17784;SDS011;9016;53.582;10.062;2023-03-01T15:28:00;5.80;;;4.73;;